createdAt,value
2022-10-31T00:02:59.483Z,26.67
2022-10-31T00:08:02.473Z,22.08
2022-10-31T00:13:05.264Z,21.75
2022-10-31T00:18:08.628Z,19.20
2022-10-31T00:23:12.426Z,19.13
2022-10-31T00:28:15.200Z,20.65
2022-10-31T00:33:17.920Z,20.15
2022-10-31T00:38:21.008Z,18.95
2022-10-31T00:43:23.996Z,18.00
2022-10-31T00:48:26.442Z,20.15
2022-10-31T00:53:29.287Z,20.02
2022-10-31T00:58:31.912Z,17.95
2022-10-31T01:03:34.621Z,16.50
2022-10-31T01:08:38.227Z,17.33
2022-10-31T01:13:40.904Z,23.83
2022-10-31T01:18:43.605Z,16.88
2022-10-31T01:23:46.394Z,17.23
2022-10-31T01:28:50.996Z,18.08
2022-10-31T01:33:53.604Z,17.75
2022-10-31T01:39:01.131Z,18.10
2022-10-31T01:44:23.772Z,18.35
2022-10-31T01:49:34.966Z,18.52
2022-10-31T01:54:41.104Z,20.30
2022-10-31T01:59:46.747Z,19.20
2022-10-31T02:04:49.479Z,18.90
2022-10-31T02:09:55.076Z,19.23
2022-10-31T02:15:00.694Z,18.23
2022-10-31T02:20:09.678Z,18.80
2022-10-31T02:25:15.464Z,17.50
2022-10-31T02:30:21.445Z,17.13
2022-10-31T02:35:36.057Z,17.30
2022-10-31T02:40:44.435Z,17.67
2022-10-31T02:46:39.354Z,18.15
2022-10-31T02:51:44.800Z,16.15
2022-10-31T02:56:48.122Z,16.75
2022-10-31T03:01:56.273Z,15.73
2022-10-31T03:07:10.008Z,15.45
2022-10-31T03:12:14.863Z,16.20
2022-10-31T03:17:22.055Z,16.00
2022-10-31T03:22:26.432Z,15.35
2022-10-31T03:27:31.072Z,15.88
2022-10-31T03:32:41.818Z,15.65
2022-10-31T03:37:44.846Z,15.70
2022-10-31T03:42:59.813Z,26.27
2022-10-31T03:48:03.087Z,21.13
2022-10-31T03:53:18.113Z,26.58
2022-10-31T03:58:23.327Z,18.65
2022-10-31T04:03:27.839Z,18.00
2022-10-31T04:08:34.447Z,24.38
2022-10-31T04:13:38.657Z,35.08
2022-10-31T04:18:47.870Z,17.13
2022-10-31T04:23:52.859Z,18.13
2022-10-31T04:29:01.265Z,13.85
2022-10-31T04:34:04.863Z,16.02
2022-10-31T04:39:07.864Z,16.00
2022-10-31T04:44:18.303Z,14.52
2022-10-31T04:49:24.973Z,16.63
2022-10-31T04:54:28.754Z,14.52
2022-10-31T04:59:59.984Z,13.05
2022-10-31T05:05:04.642Z,13.38
2022-10-31T05:10:07.229Z,13.70
2022-10-31T05:15:10.063Z,13.30
2022-10-31T05:20:31.497Z,13.23
2022-10-31T05:25:43.575Z,12.68
2022-10-31T05:30:46.621Z,13.25
2022-10-31T05:35:51.954Z,13.20
2022-10-31T05:41:06.137Z,13.45
2022-10-31T05:46:09.853Z,12.88
2022-10-31T05:51:31.069Z,13.35
2022-10-31T05:56:33.533Z,14.05
2022-10-31T06:01:36.839Z,13.07
2022-10-31T06:06:44.771Z,13.13
2022-10-31T06:11:47.371Z,13.00
2022-10-31T06:17:09.751Z,12.35
2022-10-31T06:22:24.741Z,12.10
2022-10-31T06:27:27.902Z,13.98
2022-10-31T06:32:31.496Z,12.90
2022-10-31T06:37:34.705Z,12.82
2022-10-31T06:42:47.493Z,13.27
2022-10-31T06:48:16.164Z,12.88
2022-10-31T06:53:37.283Z,56.47
2022-10-31T06:58:41.733Z,14.23
2022-10-31T07:03:46.409Z,20.90
2022-10-31T07:08:50.062Z,13.45
2022-10-31T07:13:52.586Z,16.63
2022-10-31T07:18:55.359Z,38.85
2022-10-31T07:23:58.065Z,18.42
2022-10-31T07:29:23.327Z,13.90
2022-10-31T07:34:26.380Z,13.02
2022-10-31T07:39:55.094Z,13.55
2022-10-31T07:44:57.850Z,14.43
2022-10-31T07:50:29.767Z,23.42
2022-10-31T07:56:01.711Z,16.88
2022-10-31T08:01:06.320Z,17.50
2022-10-31T08:06:16.947Z,18.60
2022-10-31T08:11:38.269Z,38.15
2022-10-31T08:16:40.767Z,22.20
2022-10-31T08:21:44.967Z,14.73
2022-10-31T08:26:47.587Z,15.82
2022-10-31T08:31:50.366Z,15.52
2022-10-31T08:37:11.621Z,15.95
2022-10-31T08:42:21.208Z,14.98
2022-10-31T08:47:24.085Z,15.70
2022-10-31T08:52:51.267Z,15.73
2022-10-31T08:57:55.504Z,15.02
2022-10-31T09:03:04.902Z,16.38
2022-10-31T09:08:14.744Z,16.40
2022-10-31T09:13:21.178Z,16.70
2022-10-31T09:18:44.062Z,30.30
2022-10-31T09:23:46.514Z,22.73
2022-10-31T09:28:49.361Z,19.67
2022-10-31T09:33:54.507Z,18.17
2022-10-31T09:39:26.033Z,18.13
2022-10-31T09:44:40.191Z,18.10
2022-10-31T09:50:04.881Z,17.63
2022-10-31T09:55:17.025Z,17.95
2022-10-31T10:00:21.523Z,17.27
2022-10-31T10:05:46.782Z,16.73
2022-10-31T10:10:58.498Z,17.52
2022-10-31T10:21:25.378Z,18.98
2022-10-31T10:31:55.179Z,17.83
2022-10-31T10:37:01.413Z,19.15
2022-10-31T10:42:27.618Z,18.60
2022-10-31T10:47:42.732Z,21.05
2022-10-31T10:52:51.908Z,19.15
2022-10-31T10:58:00.490Z,19.25
2022-10-31T11:03:04.416Z,19.05
2022-10-31T11:08:07.799Z,18.90
2022-10-31T11:13:13.267Z,19.38
2022-10-31T11:23:27.689Z,19.40
2022-10-31T11:28:31.262Z,19.13
2022-10-31T11:33:47.570Z,23.10
2022-10-31T11:38:50.689Z,19.55
2022-10-31T11:43:55.749Z,19.23
2022-10-31T11:48:58.748Z,19.35
2022-10-31T11:54:03.775Z,19.17
2022-10-31T11:59:07.754Z,17.95
2022-10-31T12:04:14.400Z,18.52
2022-10-31T12:09:22.509Z,18.73
2022-10-31T12:14:34.998Z,19.27
2022-10-31T12:19:37.643Z,17.80
2022-10-31T12:24:43.292Z,18.50
2022-10-31T12:29:58.649Z,17.98
2022-10-31T12:35:21.187Z,17.20
2022-10-31T12:40:29.871Z,18.23
2022-10-31T12:45:53.022Z,17.33
2022-10-31T12:51:04.528Z,16.73
2022-10-31T13:06:15.182Z,16.52
2022-10-31T13:11:32.601Z,15.93
2022-10-31T13:16:38.034Z,16.35
2022-10-31T13:21:46.269Z,16.35
2022-10-31T13:26:54.437Z,16.70
2022-10-31T13:31:57.428Z,15.48
2022-10-31T13:37:19.190Z,16.48
2022-10-31T13:47:24.836Z,16.02
2022-10-31T13:52:28.050Z,15.75
2022-10-31T13:57:43.252Z,16.40
2022-10-31T14:02:47.728Z,17.15
2022-10-31T14:07:50.696Z,17.30
2022-10-31T14:12:54.273Z,17.50
2022-10-31T14:18:02.063Z,17.40
2022-10-31T14:23:23.628Z,16.60
2022-10-31T14:28:33.893Z,16.33
2022-10-31T14:33:36.653Z,17.38
2022-10-31T14:38:45.378Z,17.35
2022-10-31T14:43:47.992Z,17.45
2022-10-31T14:49:09.571Z,18.30
2022-10-31T14:54:17.037Z,19.07
2022-10-31T14:59:22.692Z,17.92
2022-10-31T15:04:26.764Z,21.55
2022-10-31T15:09:31.388Z,20.55
2022-10-31T15:14:34.198Z,20.52
2022-10-31T15:19:38.751Z,19.63
2022-10-31T15:24:42.703Z,21.30
2022-10-31T15:30:11.629Z,17.38
2022-10-31T15:35:25.971Z,23.20
2022-10-31T15:40:29.493Z,24.02
2022-10-31T15:45:32.735Z,24.42
2022-10-31T15:50:40.745Z,26.17
2022-10-31T15:55:48.932Z,26.98
2022-10-31T16:00:58.947Z,27.75
2022-10-31T16:06:02.713Z,32.42
2022-10-31T16:11:08.184Z,34.53
2022-10-31T16:16:45.924Z,36.20
2022-10-31T16:21:39.571Z,30.70
2022-10-31T16:26:42.463Z,30.75
2022-10-31T16:31:44.988Z,29.67
2022-10-31T16:36:47.924Z,32.58
2022-10-31T16:41:53.537Z,31.88
2022-10-31T16:47:08.325Z,31.30
2022-10-31T16:52:11.242Z,31.05
2022-10-31T16:57:15.931Z,29.83
2022-10-31T17:02:21.749Z,32.50
2022-10-31T17:07:25.598Z,31.17
2022-10-31T17:12:29.019Z,30.73
2022-10-31T17:17:32.758Z,35.17
2022-10-31T17:22:36.541Z,32.30
2022-10-31T17:27:42.290Z,31.23
2022-10-31T17:32:47.853Z,37.72
2022-10-31T17:37:51.112Z,32.13
2022-10-31T17:42:56.735Z,31.65
2022-10-31T17:47:59.513Z,32.03
2022-10-31T17:53:02.532Z,31.80
2022-10-31T17:58:06.177Z,30.20
2022-10-31T18:03:08.941Z,31.30
2022-10-31T18:08:11.758Z,29.65
2022-10-31T18:13:14.488Z,32.95
2022-10-31T18:18:17.334Z,29.70
2022-10-31T18:23:20.135Z,47.92
2022-10-31T18:28:22.969Z,34.53
2022-10-31T18:33:25.731Z,34.63
2022-10-31T18:38:28.659Z,31.60
2022-10-31T18:43:31.382Z,30.80
2022-10-31T18:48:34.086Z,31.40
2022-10-31T18:53:37.071Z,33.35
2022-10-31T18:58:39.778Z,32.72
2022-10-31T19:03:42.766Z,39.75
2022-10-31T19:08:48.473Z,34.35
2022-10-31T19:13:51.261Z,34.22
2022-10-31T19:18:57.573Z,32.13
2022-10-31T19:24:00.790Z,33.65
2022-10-31T19:29:03.828Z,31.60
2022-10-31T19:34:06.638Z,31.48
2022-10-31T19:39:09.764Z,27.98
2022-10-31T19:44:15.097Z,26.70
2022-10-31T19:49:18.926Z,25.58
2022-10-31T19:54:21.744Z,26.23
2022-10-31T19:59:25.436Z,22.98
2022-10-31T20:04:28.184Z,28.38
2022-10-31T20:09:30.909Z,31.27
2022-10-31T20:14:33.639Z,25.52
2022-10-31T20:19:36.354Z,22.60
2022-10-31T20:24:39.483Z,27.10
2022-10-31T20:29:41.949Z,24.58
2022-10-31T20:34:44.705Z,30.50
2022-10-31T20:39:51.357Z,28.83
2022-10-31T20:44:57.199Z,24.60
2022-10-31T20:49:59.959Z,24.40
2022-10-31T20:55:02.618Z,23.13
2022-10-31T21:00:05.772Z,23.55
2022-10-31T21:05:12.204Z,24.45
2022-10-31T21:10:17.584Z,24.25
2022-10-31T21:15:20.470Z,23.55
2022-10-31T21:20:23.134Z,24.48
2022-10-31T21:25:25.885Z,24.15
2022-10-31T21:30:28.616Z,23.98
2022-10-31T21:35:31.255Z,24.58
2022-10-31T21:40:34.150Z,24.58
2022-10-31T21:45:37.302Z,23.58
2022-10-31T21:50:43.010Z,24.70
2022-10-31T21:55:45.495Z,23.50
2022-10-31T22:00:47.939Z,25.13
2022-10-31T22:05:50.558Z,25.20
2022-10-31T22:10:53.153Z,26.85
2022-10-31T22:15:55.801Z,30.27
2022-10-31T22:21:05.584Z,28.55
2022-10-31T22:26:09.886Z,30.33
2022-10-31T22:31:13.296Z,33.90
2022-10-31T22:36:18.050Z,30.23
2022-10-31T22:41:22.156Z,27.45
2022-10-31T22:46:25.879Z,30.33
2022-10-31T22:51:32.911Z,28.25
2022-10-31T22:56:35.892Z,29.05
2022-10-31T23:01:38.758Z,27.98
2022-10-31T23:06:41.724Z,28.25
2022-10-31T23:11:45.065Z,28.23
2022-10-31T23:16:52.190Z,29.15
2022-10-31T23:22:02.460Z,28.70
2022-10-31T23:27:09.666Z,27.88
2022-10-31T23:32:16.083Z,28.33
2022-10-31T23:37:19.587Z,28.98
2022-10-31T23:42:22.731Z,30.25
2022-10-31T23:47:25.628Z,28.63
2022-10-31T23:52:31.238Z,29.30
2022-10-31T23:57:33.820Z,28.73
